Weather at Cuthbert-Randolph Airport

Public forecast

Using degrees Fahrenheit for public forecast. Weather courtesy of forecast.io.

Closest aviation weather report (METAR) to Cuthbert-Randolph Airport

Closest report is Early County Airport, 18.5 nm (34.3 km) S. Retrieved 2021/03/09 08:35 UTC (15 minutes ago):

KBIJ 090835Z AUTO 00000KT 10SM CLR 02/01 A3050 RMK AO2

Closest aviation forecast (TAF) to Cuthbert-Randolph Airport

Closest forecast is Southwest Georgia Regional Airport, 33.7 nm (62.4 km) ESE. Retrieved 2021/03/09 06:22 UTC (2 hours ago):

TAF KABY 090520Z 0906/1006 00000KT P6SM SKC FM091400 13005KT P6SM SKC FM100000 00000KT P6SM FEW250